Hovedside
METAR-TAF:

METAR-TAF

Lufthavner :

Skellefteå, Sverige

Skellefteå lufthavn

breddegrad: 64-38N, lengdegrad: 021-05E, høyde over havet: 49 m

Gjeldene værobservasjon

Denne rapporten ble laget for 20 minutter siden, klokken 07:20 UTC
Vind 3 kt fra skiftende retning
Temperatur 1°C
Luftfuktighet 100%
Trykk 999 hPa
Sikt: 3000 m
Overskyet i en høyde av 200 ft

METAR: ESNS 210720Z VRB03KT 3000 OVC002 01/01 Q0999

Tid: 09:40 (07:40 UTC)

Varsel

Denne rapporten ble laget for 7 minutter siden, klokken 07:33 UTC
Varsel gyldig fra 21. klokken 07 UTC til 21. klokken 10 UTC
Vind 3 kt fra skiftende retning
Sikt: 3000 m
Overskyet i en høyde av 200 ft
dis
Blir
fra 21. klokken 07 UTC til 21. klokken 09 UTC
Sikt: 8000 m
Spredte skyer i en høyde av 200 ft
Brutte skyer i en høyde av 500 ft
Midlertidig
fra 21. klokken 09 UTC til 21. klokken 10 UTC
Spredte skyer i en høyde av 500 ft

TAF: ESNS 210733Z 2107/2110 VRB03KT 3000 BR OVC002 BECMG 2107/2109 8000 NSW SCT002 BKN005 TEMPO 2109/2110 SCT005

Værobservasjoner og værvarsel for over 4000 flyplasser (METAR- og TAF-rapporter).

Tilgjengelige stasjoner er representert av de røde og gule prikkene på kartet.

Hold musepekeren over prikken for å se navnet på stasjonen.

Klikk så for å se værobservasjoner og -varsler.

For å forandre kartet kan du klikke på den grønne knappen med svart kryss for å zoome inn, på den grønne knappen med strek for å zoome ut, eller på de grønne pilene for å se tilstøtende kart.


METAR-TAF: